Time;durP1;ratioP1;P1;durP2;ratioP2;P2;SDS_P1;SDS_P2;PMS_P1;PMS_P2;Temp;Humidity;BMP_temperature;BMP_pressure;BME280_temperature;BME280_humidity;BME280_pressure;Samples;Min_cycle;Max_cycle;Signal;HPM_P1;HPM_P2
2024/01/24 00:00:56;;;;;;;0.80;0.80;;;;;;;;;;5050903;27;100033;-75
2024/01/24 00:03:22;;;;;;;0.73;0.63;;;;;;;;;;5050261;27;98272;-74
2024/01/24 00:05:49;;;;;;;3.72;0.90;;;;;;;;;;5050706;27;99394;-75
2024/01/24 00:08:15;;;;;;;0.73;0.73;;;;;;;;;;5063484;27;99988;-75
2024/01/24 00:10:42;;;;;;;0.93;0.93;;;;;;;;;;5072152;27;98827;-76
2024/01/24 00:13:08;;;;;;;1.08;1.00;;;;;;;;;;5070386;27;100225;-76
2024/01/24 00:15:35;;;;;;;1.08;0.93;;;;;;;;;;5069430;27;98233;-76
2024/01/24 00:18:01;;;;;;;1.25;1.00;;;;;;;;;;5065141;27;99759;-75
2024/01/24 00:20:29;;;;;;;2.45;0.90;;;;;;;;;;5066636;27;101562;-76
2024/01/24 00:22:55;;;;;;;1.63;0.90;;;;;;;;;;5067674;27;98222;-75
2024/01/24 00:25:22;;;;;;;1.63;1.00;;;;;;;;;;5066562;27;100181;-75
2024/01/24 00:27:48;;;;;;;0.75;0.75;;;;;;;;;;5067424;27;99846;-76
2024/01/24 00:30:14;;;;;;;1.05;0.98;;;;;;;;;;5070727;27;99650;-76
2024/01/24 00:32:41;;;;;;;1.35;1.00;;;;;;;;;;5065628;27;99996;-76
2024/01/24 00:35:08;;;;;;;0.95;0.93;;;;;;;;;;5065962;27;98261;-75
2024/01/24 00:37:34;;;;;;;1.48;1.17;;;;;;;;;;5065165;27;99535;-76
2024/01/24 00:40:02;;;;;;;1.23;1.13;;;;;;;;;;5066633;27;100111;-75
2024/01/24 00:42:29;;;;;;;6.25;0.90;;;;;;;;;;5065827;27;99578;-75
2024/01/24 00:44:55;;;;;;;0.75;0.75;;;;;;;;;;5068788;27;98825;-75
2024/01/24 00:47:22;;;;;;;0.85;0.85;;;;;;;;;;5058816;27;99290;-76
2024/01/24 00:49:48;;;;;;;0.90;0.90;;;;;;;;;;5064925;27;99863;-75
2024/01/24 00:52:14;;;;;;;1.63;1.38;;;;;;;;;;5069191;27;98742;-75
2024/01/24 00:54:41;;;;;;;2.55;0.95;;;;;;;;;;5064522;27;98348;-76
2024/01/24 00:57:08;;;;;;;1.27;1.08;;;;;;;;;;5065047;27;99596;-76
2024/01/24 00:59:34;;;;;;;0.80;0.80;;;;;;;;;;5063948;27;99858;-76
2024/01/24 01:02:01;;;;;;;2.95;0.95;;;;;;;;;;5062620;27;99824;-75
2024/01/24 01:04:27;;;;;;;1.30;1.10;;;;;;;;;;5064522;27;99963;-76
2024/01/24 01:06:53;;;;;;;1.35;0.80;;;;;;;;;;5065359;27;100381;-75
2024/01/24 01:09:20;;;;;;;1.17;1.08;;;;;;;;;;5063415;27;98770;-75
2024/01/24 01:11:46;;;;;;;1.05;1.02;;;;;;;;;;5067040;27;99450;-76
2024/01/24 01:14:13;;;;;;;1.23;0.90;;;;;;;;;;5068329;27;99961;-75
2024/01/24 01:16:39;;;;;;;1.42;1.02;;;;;;;;;;5066716;27;99823;-75
2024/01/24 01:19:06;;;;;;;1.98;1.10;;;;;;;;;;5065883;27;99837;-74
2024/01/24 01:21:32;;;;;;;1.67;1.10;;;;;;;;;;5063440;27;98265;-75
2024/01/24 01:23:59;;;;;;;3.40;1.10;;;;;;;;;;5064468;27;99614;-74
2024/01/24 01:26:25;;;;;;;1.08;1.08;;;;;;;;;;5065204;27;99204;-75
2024/01/24 01:28:52;;;;;;;1.85;1.40;;;;;;;;;;5065804;27;98625;-75
2024/01/24 01:31:18;;;;;;;3.83;1.05;;;;;;;;;;5064725;27;99341;-76
2024/01/24 01:33:45;;;;;;;1.10;1.10;;;;;;;;;;5061870;27;100008;-75
2024/01/24 01:36:11;;;;;;;1.73;1.10;;;;;;;;;;5063823;27;99209;-75
2024/01/24 01:38:48;;;;;;;0.80;0.80;;;;;;;;;;5064755;27;99344;-75
2024/01/24 01:41:15;;;;;;;1.17;0.90;;;;;;;;;;5065659;27;98820;-76
2024/01/24 01:43:43;;;;;;;0.98;0.98;;;;;;;;;;5065147;27;99443;-76
2024/01/24 01:46:19;;;;;;;0.80;0.80;;;;;;;;;;5066903;27;100945;-75
2024/01/24 01:48:46;;;;;;;2.15;1.13;;;;;;;;;;5064108;27;99766;-76
2024/01/24 01:51:13;;;;;;;1.48;1.00;;;;;;;;;;5062022;27;99354;-75
2024/01/24 01:53:39;;;;;;;0.90;0.90;;;;;;;;;;5060922;27;99851;-76
2024/01/24 01:56:07;;;;;;;1.02;0.88;;;;;;;;;;5068284;27;98344;-75
2024/01/24 01:58:34;;;;;;;0.98;0.98;;;;;;;;;;5052928;27;99923;-76
2024/01/24 02:01:01;;;;;;;2.53;0.93;;;;;;;;;;5049060;27;99621;-76
2024/01/24 02:03:28;;;;;;;0.80;0.80;;;;;;;;;;5048316;27;99271;-76
2024/01/24 02:05:55;;;;;;;3.55;1.33;;;;;;;;;;5050123;27;98893;-76
2024/01/24 02:08:21;;;;;;;9.50;1.17;;;;;;;;;;5068789;27;98202;-75
2024/01/24 02:10:48;;;;;;;2.53;1.08;;;;;;;;;;5068481;27;99698;-76
2024/01/24 02:13:14;;;;;;;2.58;1.38;;;;;;;;;;5067963;27;99838;-76
2024/01/24 02:15:41;;;;;;;1.20;1.10;;;;;;;;;;5068165;27;99108;-76
2024/01/24 02:18:07;;;;;;;2.92;1.63;;;;;;;;;;5067288;27;98523;-77
2024/01/24 02:20:34;;;;;;;5.00;1.00;;;;;;;;;;5071832;27;98255;-77
2024/01/24 02:23:02;;;;;;;1.63;0.95;;;;;;;;;;5062794;27;99081;-76
2024/01/24 02:25:28;;;;;;;8.35;1.85;;;;;;;;;;5063745;27;99074;-77
2024/01/24 02:27:55;;;;;;;4.20;1.30;;;;;;;;;;5065995;27;99551;-76
2024/01/24 02:30:21;;;;;;;3.95;1.35;;;;;;;;;;5064889;27;99439;-75
2024/01/24 02:32:48;;;;;;;5.18;1.45;;;;;;;;;;5063337;27;99911;-77
2024/01/24 02:35:15;;;;;;;4.22;1.50;;;;;;;;;;5061381;27;98393;-74
2024/01/24 02:37:41;;;;;;;1.23;1.17;;;;;;;;;;5063511;27;99570;-75
2024/01/24 02:40:08;;;;;;;6.68;1.58;;;;;;;;;;5063009;27;99086;-76
2024/01/24 02:42:34;;;;;;;7.18;1.63;;;;;;;;;;5065085;27;99829;-76
2024/01/24 02:45:01;;;;;;;9.23;1.75;;;;;;;;;;5064202;27;100474;-76
2024/01/24 02:47:27;;;;;;;4.70;1.30;;;;;;;;;;5064576;27;98280;-75
2024/01/24 02:49:56;;;;;;;4.88;1.83;;;;;;;;;;5065973;27;100118;-77
2024/01/24 02:52:22;;;;;;;4.85;1.73;;;;;;;;;;5061066;27;100112;-75
2024/01/24 02:54:48;;;;;;;5.75;1.55;;;;;;;;;;5065284;27;99454;-77
2024/01/24 02:57:15;;;;;;;3.10;1.20;;;;;;;;;;5065005;27;98882;-76
2024/01/24 02:59:42;;;;;;;2.53;1.38;;;;;;;;;;5064071;27;101994;-75
2024/01/24 03:02:08;;;;;;;2.60;1.20;;;;;;;;;;5066928;27;98767;-76
2024/01/24 03:04:34;;;;;;;5.50;1.67;;;;;;;;;;5064653;27;99950;-77
2024/01/24 03:07:01;;;;;;;5.65;1.60;;;;;;;;;;5062506;27;99948;-77
2024/01/24 03:09:28;;;;;;;8.02;2.15;;;;;;;;;;5064730;27;99385;-77
2024/01/24 03:11:54;;;;;;;2.65;1.60;;;;;;;;;;5065478;27;99948;-77
2024/01/24 03:14:24;;;;;;;6.18;2.00;;;;;;;;;;5063172;27;98208;-76
2024/01/24 03:16:51;;;;;;;3.22;1.83;;;;;;;;;;5065434;27;99816;-77
2024/01/24 03:19:17;;;;;;;5.07;1.50;;;;;;;;;;5064448;27;99501;-77
2024/01/24 03:21:44;;;;;;;5.65;1.70;;;;;;;;;;5063331;27;99530;-77
2024/01/24 03:24:10;;;;;;;7.55;1.52;;;;;;;;;;5067046;27;99370;-75
2024/01/24 03:26:37;;;;;;;4.45;1.17;;;;;;;;;;5063956;27;98683;-75
2024/01/24 03:29:04;;;;;;;5.72;1.75;;;;;;;;;;5063386;27;99416;-76
2024/01/24 03:31:30;;;;;;;9.60;1.83;;;;;;;;;;5063758;27;99303;-75
2024/01/24 03:33:57;;;;;;;9.18;1.95;;;;;;;;;;5062970;27;98196;-74
2024/01/24 03:36:23;;;;;;;7.38;1.90;;;;;;;;;;5068102;27;99201;-76
2024/01/24 03:38:50;;;;;;;5.63;1.77;;;;;;;;;;5065943;27;99932;-76
2024/01/24 03:41:16;;;;;;;4.97;1.70;;;;;;;;;;5064907;27;99181;-76
2024/01/24 03:43:43;;;;;;;7.45;1.52;;;;;;;;;;5069125;27;99657;-76
2024/01/24 03:46:09;;;;;;;6.63;2.00;;;;;;;;;;5071218;27;99947;-76
2024/01/24 03:48:36;;;;;;;10.55;2.20;;;;;;;;;;5066734;27;99415;-76
2024/01/24 03:51:03;;;;;;;6.10;2.13;;;;;;;;;;5066437;27;100559;-75
2024/01/24 03:53:31;;;;;;;7.38;2.28;;;;;;;;;;5067395;27;99348;-76
2024/01/24 03:55:58;;;;;;;12.95;2.97;;;;;;;;;;5066244;27;100344;-76
2024/01/24 03:58:24;;;;;;;8.50;2.95;;;;;;;;;;5067593;27;99244;-76
2024/01/24 04:00:52;;;;;;;10.02;2.17;;;;;;;;;;5067284;27;99719;-75
2024/01/24 04:03:19;;;;;;;16.70;2.85;;;;;;;;;;5064922;27;101173;-75
2024/01/24 04:05:46;;;;;;;10.25;2.92;;;;;;;;;;5061487;27;99939;-75
2024/01/24 04:08:13;;;;;;;16.58;1.92;;;;;;;;;;5074469;27;98229;-75
2024/01/24 04:10:39;;;;;;;14.43;2.85;;;;;;;;;;5050930;27;100084;-75
2024/01/24 04:13:05;;;;;;;11.57;3.80;;;;;;;;;;5050449;27;98229;-76
2024/01/24 04:15:32;;;;;;;17.95;3.58;;;;;;;;;;5049520;27;99410;-75
2024/01/24 04:17:59;;;;;;;8.80;3.10;;;;;;;;;;5048526;27;99008;-75
2024/01/24 04:20:26;;;;;;;8.82;2.58;;;;;;;;;;5050355;27;98233;-75
2024/01/24 04:22:53;;;;;;;13.20;3.25;;;;;;;;;;5070311;27;99321;-75
2024/01/24 04:25:19;;;;;;;14.07;3.15;;;;;;;;;;5069872;27;100293;-76
2024/01/24 04:27:46;;;;;;;19.35;3.40;;;;;;;;;;5074266;27;98745;-76
2024/01/24 04:30:12;;;;;;;19.88;3.67;;;;;;;;;;5069992;27;99853;-75
2024/01/24 04:32:39;;;;;;;20.63;5.07;;;;;;;;;;5071009;27;98280;-75
2024/01/24 04:35:06;;;;;;;16.25;3.58;;;;;;;;;;5067252;27;99481;-74
2024/01/24 04:37:33;;;;;;;21.83;5.05;;;;;;;;;;5064419;27;99935;-75
2024/01/24 04:40:00;;;;;;;12.38;3.35;;;;;;;;;;5065037;27;99348;-75
2024/01/24 04:42:26;;;;;;;16.52;3.33;;;;;;;;;;5066142;27;99713;-75
2024/01/24 04:44:53;;;;;;;24.85;4.65;;;;;;;;;;5063828;27;99190;-75
2024/01/24 04:47:19;;;;;;;16.70;4.93;;;;;;;;;;5065760;27;99914;-75
2024/01/24 04:49:46;;;;;;;14.25;3.33;;;;;;;;;;5070912;27;99579;-75
2024/01/24 04:52:13;;;;;;;17.20;3.85;;;;;;;;;;5064318;27;99824;-75
2024/01/24 04:54:41;;;;;;;21.98;4.00;;;;;;;;;;5064102;27;100193;-75
2024/01/24 04:57:08;;;;;;;18.85;4.10;;;;;;;;;;5066304;27;99946;-76
2024/01/24 04:59:34;;;;;;;18.92;3.47;;;;;;;;;;5064974;27;98642;-74
2024/01/24 05:02:15;;;;;;;28.20;6.13;;;;;;;;;;5065136;27;99350;-75
2024/01/24 05:04:42;;;;;;;22.65;4.68;;;;;;;;;;5065349;27;99798;-74
2024/01/24 05:07:08;;;;;;;24.00;3.60;;;;;;;;;;5061033;27;98281;-75
2024/01/24 05:09:35;;;;;;;20.98;4.97;;;;;;;;;;5066696;27;99485;-74
2024/01/24 05:12:02;;;;;;;21.73;5.53;;;;;;;;;;5069290;27;98936;-76
2024/01/24 05:14:28;;;;;;;9.75;3.30;;;;;;;;;;5064359;27;98807;-75
2024/01/24 05:16:55;;;;;;;19.90;5.45;;;;;;;;;;5066271;27;99907;-73
2024/01/24 05:19:21;;;;;;;16.65;4.40;;;;;;;;;;5065928;27;98374;-74
2024/01/24 05:21:48;;;;;;;20.17;4.45;;;;;;;;;;5064141;27;98707;-75
2024/01/24 05:24:14;;;;;;;23.67;5.32;;;;;;;;;;5065187;27;100279;-75
2024/01/24 05:26:43;;;;;;;26.58;5.55;;;;;;;;;;5064875;27;98825;-76
2024/01/24 05:29:10;;;;;;;19.58;4.93;;;;;;;;;;5065012;27;99788;-75
2024/01/24 05:31:36;;;;;;;20.88;4.50;;;;;;;;;;5066139;27;99901;-75
2024/01/24 05:34:02;;;;;;;19.98;5.50;;;;;;;;;;5070539;27;99367;-75
2024/01/24 05:36:29;;;;;;;28.50;4.78;;;;;;;;;;5069609;27;100656;-75
2024/01/24 05:38:56;;;;;;;33.20;5.57;;;;;;;;;;5069246;27;98748;-75
2024/01/24 05:41:22;;;;;;;34.53;5.65;;;;;;;;;;5068995;27;99456;-75
2024/01/24 05:43:49;;;;;;;43.88;6.55;;;;;;;;;;5069264;27;99032;-75
2024/01/24 05:46:15;;;;;;;23.25;4.90;;;;;;;;;;5068650;27;98336;-75
2024/01/24 05:48:42;;;;;;;25.90;5.13;;;;;;;;;;5067374;27;98653;-75
2024/01/24 05:51:08;;;;;;;24.65;4.93;;;;;;;;;;5068989;27;99645;-75
2024/01/24 05:53:35;;;;;;;21.77;4.93;;;;;;;;;;5068249;27;98274;-75
2024/01/24 05:56:01;;;;;;;27.27;6.63;;;;;;;;;;5070733;27;100196;-76
2024/01/24 05:58:28;;;;;;;24.90;5.25;;;;;;;;;;5068911;27;98238;-74
2024/01/24 06:00:54;;;;;;;28.02;5.50;;;;;;;;;;5068916;27;99312;-75
2024/01/24 06:03:21;;;;;;;28.58;4.82;;;;;;;;;;5067449;27;100973;-75
2024/01/24 06:05:48;;;;;;;24.15;4.93;;;;;;;;;;5068904;27;98226;-75
2024/01/24 06:08:14;;;;;;;22.67;6.03;;;;;;;;;;5068936;27;100003;-75
2024/01/24 06:10:41;;;;;;;28.83;5.70;;;;;;;;;;5068648;27;99899;-75
2024/01/24 06:13:08;;;;;;;28.35;6.38;;;;;;;;;;5068408;27;98238;-74
2024/01/24 06:15:35;;;;;;;39.65;7.68;;;;;;;;;;5068926;27;98150;-76
2024/01/24 06:18:02;;;;;;;32.13;5.95;;;;;;;;;;5068970;27;98980;-73
2024/01/24 06:20:29;;;;;;;27.08;6.18;;;;;;;;;;5067679;27;98906;-75
2024/01/24 06:22:55;;;;;;;31.98;7.63;;;;;;;;;;5067938;27;99994;-74
2024/01/24 06:25:21;;;;;;;33.83;6.32;;;;;;;;;;5069044;27;98277;-74
2024/01/24 06:27:48;;;;;;;24.55;4.78;;;;;;;;;;5068620;27;98544;-75
2024/01/24 06:30:14;;;;;;;27.80;7.20;;;;;;;;;;5066515;27;98922;-75
2024/01/24 06:32:49;;;;;;;41.00;5.53;;;;;;;;;;5068636;27;98266;-76
2024/01/24 06:35:16;;;;;;;31.98;7.28;;;;;;;;;;5066528;27;98563;-75
2024/01/24 06:37:42;;;;;;;46.00;8.02;;;;;;;;;;5071128;27;99882;-75
2024/01/24 06:40:11;;;;;;;31.42;5.07;;;;;;;;;;5068525;27;99683;-75
2024/01/24 06:42:40;;;;;;;39.35;6.45;;;;;;;;;;5067273;27;99322;-76
2024/01/24 06:45:09;;;;;;;15.93;3.50;;;;;;;;;;5066970;27;98230;-75
2024/01/24 06:47:36;;;;;;;17.25;4.53;;;;;;;;;;5067906;27;98913;-75
2024/01/24 06:50:03;;;;;;;37.45;5.70;;;;;;;;;;5066729;27;100040;-75
2024/01/24 06:52:30;;;;;;;33.72;7.45;;;;;;;;;;5066207;27;98518;-75
2024/01/24 06:54:57;;;;;;;24.83;5.80;;;;;;;;;;5068209;27;99555;-75
2024/01/24 06:57:24;;;;;;;30.95;6.18;;;;;;;;;;5067581;27;99082;-75
2024/01/24 06:59:51;;;;;;;30.02;5.93;;;;;;;;;;5072662;27;98535;-75
2024/01/24 07:02:17;;;;;;;42.25;6.28;;;;;;;;;;5063570;27;100559;-75
2024/01/24 07:04:44;;;;;;;49.08;9.02;;;;;;;;;;5067719;27;98367;-75
2024/01/24 07:07:10;;;;;;;32.40;4.70;;;;;;;;;;5064811;27;99160;-75
2024/01/24 07:09:37;;;;;;;35.20;5.95;;;;;;;;;;5071696;27;99934;-76
2024/01/24 07:12:04;;;;;;;31.45;7.20;;;;;;;;;;5070102;27;98529;-77
2024/01/24 07:14:30;;;;;;;32.95;7.47;;;;;;;;;;5070819;27;98657;-74
2024/01/24 07:16:57;;;;;;;35.70;6.78;;;;;;;;;;5069707;27;99216;-74
2024/01/24 07:19:23;;;;;;;42.50;8.50;;;;;;;;;;5071013;27;98293;-75
2024/01/24 07:21:50;;;;;;;35.10;6.15;;;;;;;;;;5073722;27;99990;-75
2024/01/24 07:24:17;;;;;;;37.83;7.95;;;;;;;;;;5069859;27;98265;-74
2024/01/24 07:26:43;;;;;;;42.88;7.78;;;;;;;;;;5069930;27;98444;-76
2024/01/24 07:29:10;;;;;;;37.65;6.72;;;;;;;;;;5069425;27;100009;-75
2024/01/24 07:31:38;;;;;;;38.83;6.82;;;;;;;;;;5059353;27;98319;-74
2024/01/24 07:34:04;;;;;;;28.95;5.05;;;;;;;;;;5069929;27;99671;-74
2024/01/24 07:36:31;;;;;;;35.53;6.18;;;;;;;;;;5070194;27;98936;-74
2024/01/24 07:38:57;;;;;;;26.73;5.72;;;;;;;;;;5069807;27;98835;-74
2024/01/24 07:41:23;;;;;;;25.17;5.97;;;;;;;;;;5070783;27;99482;-74
2024/01/24 07:43:50;;;;;;;34.08;6.93;;;;;;;;;;5069403;27;100058;-75
2024/01/24 07:46:17;;;;;;;33.83;6.65;;;;;;;;;;5063602;27;99470;-73
2024/01/24 07:48:43;;;;;;;31.42;5.68;;;;;;;;;;5066553;27;99013;-74
2024/01/24 07:51:10;;;;;;;30.25;6.32;;;;;;;;;;5067139;27;98945;-75
2024/01/24 07:53:38;;;;;;;21.60;5.60;;;;;;;;;;5068395;27;99658;-73
2024/01/24 07:56:05;;;;;;;39.78;7.30;;;;;;;;;;5063328;27;99909;-74
2024/01/24 07:58:47;;;;;;;43.35;7.28;;;;;;;;;;5067081;27;98218;-74
2024/01/24 08:01:14;;;;;;;27.17;5.85;;;;;;;;;;5066311;27;99303;-73
2024/01/24 08:03:41;;;;;;;40.10;6.88;;;;;;;;;;5070368;27;99914;-74
2024/01/24 08:06:09;;;;;;;27.15;4.97;;;;;;;;;;5073957;27;98284;-74
2024/01/24 08:08:36;;;;;;;28.08;6.68;;;;;;;;;;5069585;27;99005;-73
2024/01/24 08:11:02;;;;;;;18.85;5.85;;;;;;;;;;5069608;27;98199;-74
2024/01/24 08:13:29;;;;;;;31.65;6.10;;;;;;;;;;5065088;27;99750;-74
2024/01/24 08:15:57;;;;;;;28.50;5.43;;;;;;;;;;5067270;27;99990;-73
2024/01/24 08:18:24;;;;;;;32.97;6.38;;;;;;;;;;5066416;27;98804;-73
2024/01/24 08:20:52;;;;;;;25.52;5.78;;;;;;;;;;5062347;27;98365;-73
2024/01/24 08:23:19;;;;;;;35.70;6.47;;;;;;;;;;5066308;27;99137;-73
2024/01/24 08:25:48;;;;;;;28.00;5.97;;;;;;;;;;5064829;27;99925;-74
2024/01/24 08:28:15;;;;;;;36.15;6.03;;;;;;;;;;5069252;27;99967;-72
2024/01/24 08:30:42;;;;;;;23.23;5.50;;;;;;;;;;5068667;27;98547;-73
2024/01/24 08:33:08;;;;;;;44.30;6.68;;;;;;;;;;5070216;27;99355;-73
2024/01/24 08:35:36;;;;;;;25.35;4.93;;;;;;;;;;5069850;27;99142;-73
2024/01/24 08:38:03;;;;;;;30.88;6.13;;;;;;;;;;5069791;27;98096;-73
2024/01/24 08:40:29;;;;;;;25.70;5.68;;;;;;;;;;5065075;27;99692;-72
2024/01/24 08:42:56;;;;;;;33.00;6.70;;;;;;;;;;5065436;27;99079;-74
2024/01/24 08:45:22;;;;;;;32.55;4.75;;;;;;;;;;5065624;27;98388;-73
2024/01/24 08:47:49;;;;;;;31.75;5.95;;;;;;;;;;5072846;27;99414;-73
2024/01/24 08:50:16;;;;;;;34.63;6.60;;;;;;;;;;5069163;27;98333;-73
2024/01/24 08:52:42;;;;;;;23.88;5.18;;;;;;;;;;5057158;27;99347;-73
2024/01/24 08:55:11;;;;;;;22.45;5.15;;;;;;;;;;5068443;27;99208;-73
2024/01/24 08:57:38;;;;;;;34.53;5.72;;;;;;;;;;5068732;27;98252;-73
2024/01/24 09:00:07;;;;;;;29.25;5.22;;;;;;;;;;5068068;27;99492;-73
2024/01/24 09:02:34;;;;;;;33.30;5.40;;;;;;;;;;5070033;27;101619;-73
2024/01/24 09:05:01;;;;;;;34.90;7.82;;;;;;;;;;5068201;27;99412;-73
2024/01/24 09:07:27;;;;;;;25.40;5.13;;;;;;;;;;5068226;27;99435;-73
2024/01/24 09:09:54;;;;;;;26.48;5.53;;;;;;;;;;5072183;27;99956;-74
2024/01/24 09:12:21;;;;;;;34.88;5.93;;;;;;;;;;5069048;27;100602;-74
2024/01/24 09:14:48;;;;;;;23.38;5.20;;;;;;;;;;5068503;27;99209;-75
2024/01/24 09:17:17;;;;;;;29.85;6.50;;;;;;;;;;5061213;27;98645;-73
2024/01/24 09:19:45;;;;;;;29.35;5.82;;;;;;;;;;5063452;27;99547;-73
2024/01/24 09:22:11;;;;;;;26.25;4.95;;;;;;;;;;5065993;27;99882;-73
2024/01/24 09:24:38;;;;;;;37.33;6.35;;;;;;;;;;5064850;27;100335;-73
2024/01/24 09:27:04;;;;;;;32.63;6.78;;;;;;;;;;5059726;27;99177;-72
2024/01/24 09:29:31;;;;;;;30.58;6.93;;;;;;;;;;5065810;27;99010;-72
2024/01/24 09:31:58;;;;;;;20.13;4.22;;;;;;;;;;5067852;27;98234;-72
2024/01/24 09:34:26;;;;;;;23.67;4.88;;;;;;;;;;5067588;27;100009;-73
2024/01/24 09:36:53;;;;;;;30.52;5.50;;;;;;;;;;5067521;27;98281;-73
2024/01/24 09:39:21;;;;;;;23.38;5.28;;;;;;;;;;5069100;27;99684;-74
2024/01/24 09:41:49;;;;;;;25.75;5.13;;;;;;;;;;5068588;27;98948;-73
2024/01/24 09:44:16;;;;;;;34.22;6.28;;;;;;;;;;5069346;27;99241;-74
2024/01/24 09:46:43;;;;;;;26.13;5.32;;;;;;;;;;5067756;27;98640;-74
2024/01/24 09:49:10;;;;;;;26.00;6.43;;;;;;;;;;5068209;27;100081;-74
2024/01/24 09:51:39;;;;;;;15.63;4.30;;;;;;;;;;5064706;27;99572;-73
2024/01/24 09:54:06;;;;;;;24.63;5.97;;;;;;;;;;5069791;27;99713;-74
2024/01/24 09:56:35;;;;;;;17.00;4.60;;;;;;;;;;5069060;27;98242;-74
2024/01/24 09:59:03;;;;;;;29.60;6.82;;;;;;;;;;5067243;27;99419;-74
2024/01/24 10:01:39;;;;;;;29.08;5.85;;;;;;;;;;5067820;27;100264;-74
2024/01/24 10:04:06;;;;;;;25.55;6.63;;;;;;;;;;5068934;27;98144;-74
2024/01/24 10:06:37;;;;;;;31.65;6.40;;;;;;;;;;5068905;27;98587;-73
2024/01/24 10:09:05;;;;;;;18.92;5.22;;;;;;;;;;5066417;27;99847;-77
2024/01/24 10:11:34;;;;;;;26.25;5.25;;;;;;;;;;5068833;27;98195;-75
2024/01/24 10:14:00;;;;;;;26.55;5.82;;;;;;;;;;5066954;27;99403;-74
2024/01/24 10:16:27;;;;;;;33.67;6.13;;;;;;;;;;5068963;27;100049;-74
2024/01/24 10:18:54;;;;;;;23.15;6.10;;;;;;;;;;5068556;27;99943;-74
2024/01/24 10:21:20;;;;;;;20.50;4.40;;;;;;;;;;5066833;27;99071;-74
2024/01/24 10:23:47;;;;;;;24.40;5.40;;;;;;;;;;5049939;27;98191;-75
2024/01/24 10:26:15;;;;;;;29.33;5.63;;;;;;;;;;5048011;27;99412;-74
2024/01/24 10:28:42;;;;;;;26.27;5.50;;;;;;;;;;5049006;27;99937;-74
2024/01/24 10:31:09;;;;;;;26.70;6.85;;;;;;;;;;5067714;27;98328;-75
2024/01/24 10:33:36;;;;;;;16.50;4.05;;;;;;;;;;5068544;27;99376;-75
2024/01/24 10:36:03;;;;;;;27.00;4.70;;;;;;;;;;5067537;27;100010;-74
2024/01/24 10:38:47;;;;;;;20.30;4.88;;;;;;;;;;5069192;27;98860;-75
2024/01/24 10:41:14;;;;;;;15.05;3.38;;;;;;;;;;5067433;27;100382;-74
2024/01/24 10:43:45;;;;;;;23.38;3.75;;;;;;;;;;5070173;27;98249;-75
2024/01/24 10:46:12;;;;;;;21.90;4.88;;;;;;;;;;5071987;27;99516;-74
2024/01/24 10:48:40;;;;;;;31.70;6.00;;;;;;;;;;5070971;27;100139;-74
2024/01/24 10:51:07;;;;;;;24.20;4.82;;;;;;;;;;5070377;27;98517;-74
2024/01/24 10:53:34;;;;;;;30.27;4.97;;;;;;;;;;5071873;27;99486;-74
2024/01/24 10:56:02;;;;;;;29.55;5.32;;;;;;;;;;5071728;27;99787;-74
2024/01/24 10:58:29;;;;;;;18.33;4.45;;;;;;;;;;5074803;27;98130;-74
2024/01/24 11:00:57;;;;;;;22.92;4.47;;;;;;;;;;5071474;27;99838;-74
2024/01/24 11:03:24;;;;;;;17.63;4.63;;;;;;;;;;5070717;27;98233;-74
2024/01/24 11:05:54;;;;;;;16.23;4.53;;;;;;;;;;5071452;27;99318;-74
2024/01/24 11:08:26;;;;;;;18.48;4.57;;;;;;;;;;5071325;27;100114;-75
2024/01/24 11:11:10;;;;;;;27.00;5.75;;;;;;;;;;5070607;27;98644;-74
2024/01/24 11:13:37;;;;;;;17.77;4.57;;;;;;;;;;5070192;27;98718;-73
2024/01/24 11:16:22;;;;;;;19.38;4.97;;;;;;;;;;5052196;27;99263;-74
2024/01/24 11:18:48;;;;;;;37.90;5.20;;;;;;;;;;5050233;27;98219;-74
2024/01/24 11:21:20;;;;;;;29.75;8.73;;;;;;;;;;5054138;27;99590;-74
2024/01/24 11:23:48;;;;;;;29.00;4.60;;;;;;;;;;5051135;27;98291;-74
2024/01/24 11:26:17;;;;;;;16.13;4.18;;;;;;;;;;5049989;27;99679;-74
2024/01/24 11:28:46;;;;;;;22.75;4.63;;;;;;;;;;5050861;27;100321;-74
2024/01/24 11:31:13;;;;;;;20.05;4.90;;;;;;;;;;5068360;27;98148;-74
2024/01/24 11:33:59;;;;;;;24.00;5.03;;;;;;;;;;5076885;27;99690;-74
2024/01/24 11:36:26;;;;;;;17.80;4.38;;;;;;;;;;5050961;27;100331;-73
2024/01/24 11:38:52;;;;;;;29.17;4.90;;;;;;;;;;5050209;27;98236;-75
2024/01/24 11:41:26;;;;;;;38.38;6.03;;;;;;;;;;5059778;27;98494;-73
2024/01/24 11:43:53;;;;;;;17.52;4.40;;;;;;;;;;5074326;27;100101;-73
2024/01/24 11:46:21;;;;;;;28.65;5.25;;;;;;;;;;5070081;27;99402;-73
2024/01/24 11:48:48;;;;;;;30.38;4.95;;;;;;;;;;5060130;27;99872;-74
2024/01/24 11:51:15;;;;;;;14.25;3.83;;;;;;;;;;5060026;27;99821;-74
2024/01/24 11:53:42;;;;;;;25.67;4.28;;;;;;;;;;5063824;27;99586;-73
2024/01/24 11:56:14;;;;;;;15.98;3.85;;;;;;;;;;5069836;27;99960;-73
2024/01/24 11:58:40;;;;;;;20.87;4.70;;;;;;;;;;5070838;27;98235;-73
2024/01/24 12:01:08;;;;;;;26.85;5.95;;;;;;;;;;5068498;27;99359;-74
2024/01/24 12:03:35;;;;;;;18.35;4.97;;;;;;;;;;5069456;27;99922;-74
2024/01/24 12:06:02;;;;;;;14.57;4.03;;;;;;;;;;5057689;27;98936;-73
2024/01/24 12:08:29;;;;;;;28.52;6.18;;;;;;;;;;5056638;27;100009;-73
2024/01/24 12:10:55;;;;;;;19.10;4.78;;;;;;;;;;5064672;27;102060;-73
2024/01/24 12:13:23;;;;;;;17.92;4.13;;;;;;;;;;5069055;27;98465;-74
2024/01/24 12:15:50;;;;;;;32.47;5.28;;;;;;;;;;5059335;27;100364;-74
2024/01/24 12:18:18;;;;;;;17.92;5.88;;;;;;;;;;5065866;27;98306;-73
2024/01/24 12:20:48;;;;;;;20.75;4.47;;;;;;;;;;5074563;27;98644;-76
2024/01/24 12:23:15;;;;;;;29.95;5.00;;;;;;;;;;5069580;27;99846;-75
2024/01/24 12:25:42;;;;;;;39.95;7.05;;;;;;;;;;5057414;27;98309;-77
2024/01/24 12:28:09;;;;;;;25.33;4.85;;;;;;;;;;5052077;27;98550;-80
2024/01/24 12:30:37;;;;;;;19.15;4.95;;;;;;;;;;5063148;27;99374;-81
2024/01/24 12:33:04;;;;;;;22.70;5.10;;;;;;;;;;5068619;27;99613;-77
2024/01/24 12:35:31;;;;;;;20.13;4.03;;;;;;;;;;5070341;27;98939;-79
2024/01/24 12:37:59;;;;;;;26.85;5.05;;;;;;;;;;5070810;27;98262;-77
2024/01/24 12:40:27;;;;;;;32.72;6.60;;;;;;;;;;5071168;27;99936;-79
2024/01/24 12:42:55;;;;;;;13.82;4.13;;;;;;;;;;5068832;27;100082;-77
2024/01/24 12:45:23;;;;;;;20.25;4.20;;;;;;;;;;5069726;27;98534;-79
2024/01/24 12:47:50;;;;;;;19.25;4.43;;;;;;;;;;5068992;27;99284;-78
2024/01/24 12:50:16;;;;;;;28.30;5.80;;;;;;;;;;5070165;27;98696;-78
2024/01/24 12:52:44;;;;;;;30.10;5.50;;;;;;;;;;5068349;27;99620;-78
2024/01/24 12:55:10;;;;;;;15.27;3.58;;;;;;;;;;5068863;27;100053;-77
2024/01/24 12:57:37;;;;;;;18.73;4.40;;;;;;;;;;5069172;27;98240;-76
2024/01/24 13:00:05;;;;;;;30.02;3.83;;;;;;;;;;5069679;27;99833;-75
2024/01/24 13:02:31;;;;;;;15.30;3.92;;;;;;;;;;5069092;27;98130;-76
2024/01/24 13:04:58;;;;;;;32.60;5.53;;;;;;;;;;5067318;27;98362;-75
2024/01/24 13:07:26;;;;;;;20.95;3.78;;;;;;;;;;5069602;27;99116;-76
2024/01/24 13:09:53;;;;;;;23.30;4.53;;;;;;;;;;5072501;27;98992;-76
2024/01/24 13:12:23;;;;;;;15.02;4.05;;;;;;;;;;5068564;27;98425;-76
2024/01/24 13:14:49;;;;;;;13.82;4.18;;;;;;;;;;5061222;27;99927;-76
2024/01/24 13:17:18;;;;;;;7.00;3.22;;;;;;;;;;5047014;27;98281;-75
2024/01/24 13:19:44;;;;;;;26.73;5.13;;;;;;;;;;5047603;27;98769;-76
2024/01/24 13:22:11;;;;;;;21.83;4.97;;;;;;;;;;5059216;27;99236;-76
2024/01/24 13:24:37;;;;;;;34.58;6.22;;;;;;;;;;5069012;27;98266;-76
2024/01/24 13:27:04;;;;;;;29.20;4.70;;;;;;;;;;5068366;27;98129;-75
2024/01/24 13:29:32;;;;;;;10.98;3.28;;;;;;;;;;5066627;27;99913;-76
2024/01/24 13:31:58;;;;;;;21.67;4.35;;;;;;;;;;5066349;27;98272;-76
2024/01/24 13:34:26;;;;;;;23.77;4.32;;;;;;;;;;5063231;27;99445;-76
2024/01/24 13:36:52;;;;;;;24.00;5.10;;;;;;;;;;5067483;27;99358;-77
2024/01/24 13:39:19;;;;;;;19.17;5.03;;;;;;;;;;5067902;27;98626;-77
2024/01/24 13:41:45;;;;;;;20.90;5.95;;;;;;;;;;5068427;27;100859;-77
2024/01/24 13:44:12;;;;;;;21.17;4.90;;;;;;;;;;5068264;27;98236;-74
2024/01/24 13:46:39;;;;;;;25.38;4.10;;;;;;;;;;5068109;27;98696;-77
2024/01/24 13:49:08;;;;;;;12.43;3.20;;;;;;;;;;5068363;27;98924;-77
2024/01/24 13:51:35;;;;;;;28.63;4.38;;;;;;;;;;5068394;27;98763;-77
2024/01/24 13:54:09;;;;;;;19.25;4.88;;;;;;;;;;5069758;27;99522;-77
2024/01/24 13:56:36;;;;;;;22.95;5.63;;;;;;;;;;5069465;27;98206;-75
2024/01/24 13:59:02;;;;;;;20.30;4.90;;;;;;;;;;5068764;27;98588;-76
2024/01/24 14:01:29;;;;;;;33.60;5.53;;;;;;;;;;5067936;27;99845;-77
2024/01/24 14:03:58;;;;;;;19.38;4.53;;;;;;;;;;5068240;27;98320;-77
2024/01/24 14:06:25;;;;;;;21.85;4.85;;;;;;;;;;5067917;27;98921;-76
2024/01/24 14:08:52;;;;;;;25.02;4.55;;;;;;;;;;5068026;27;99840;-76
2024/01/24 14:11:20;;;;;;;15.40;4.55;;;;;;;;;;5068288;27;98195;-76
2024/01/24 14:13:48;;;;;;;14.63;3.10;;;;;;;;;;5067995;27;98530;-77
2024/01/24 14:16:17;;;;;;;24.98;5.80;;;;;;;;;;5069752;27;100011;-76
2024/01/24 14:18:43;;;;;;;21.98;4.50;;;;;;;;;;5068106;27;99588;-76
2024/01/24 14:21:11;;;;;;;25.05;4.25;;;;;;;;;;5067230;27;100003;-78
2024/01/24 14:23:39;;;;;;;23.70;5.35;;;;;;;;;;5068805;27;98239;-77
2024/01/24 14:26:05;;;;;;;24.10;5.55;;;;;;;;;;5068094;27;99477;-77
2024/01/24 14:28:34;;;;;;;16.25;4.47;;;;;;;;;;5067828;27;99899;-77
2024/01/24 14:31:00;;;;;;;19.25;4.07;;;;;;;;;;5067420;27;98330;-77